createdAt,value
2022-11-05T00:02:30.893Z,14.25
2022-11-05T00:05:17.489Z,14.44
2022-11-05T00:08:11.208Z,14.45
2022-11-05T00:10:40.210Z,14.45
2022-11-05T00:13:29.048Z,14.35
2022-11-05T00:16:15.718Z,14.28
2022-11-05T00:18:43.476Z,14.35
2022-11-05T00:21:30.135Z,14.21
2022-11-05T00:24:24.450Z,14.32
2022-11-05T00:26:52.816Z,14.23
2022-11-05T00:29:20.848Z,14.26
2022-11-05T00:31:49.051Z,14.27
2022-11-05T00:34:16.976Z,14.13
2022-11-05T00:36:45.353Z,14.10
2022-11-05T00:39:13.630Z,14.08
2022-11-05T00:41:41.977Z,14.08
2022-11-05T00:44:28.536Z,14.16
2022-11-05T00:47:16.827Z,14.09
2022-11-05T00:49:44.978Z,14.41
2022-11-05T00:52:31.716Z,14.11
2022-11-05T00:54:59.746Z,14.24
2022-11-05T00:57:27.915Z,14.31
2022-11-05T00:59:56.076Z,14.33
2022-11-05T01:02:24.667Z,14.32
2022-11-05T01:04:52.699Z,14.40
2022-11-05T01:07:20.885Z,14.47
2022-11-05T01:09:49.016Z,14.05
2022-11-05T01:12:17.508Z,14.19
2022-11-05T01:14:45.346Z,14.06
2022-11-05T01:17:13.825Z,14.07
2022-11-05T01:19:41.779Z,14.08
2022-11-05T01:22:09.938Z,13.93
2022-11-05T01:24:37.975Z,13.97
2022-11-05T01:27:06.465Z,13.88
2022-11-05T01:29:34.628Z,13.94
2022-11-05T01:32:03.119Z,13.80
2022-11-05T01:34:30.925Z,13.88
2022-11-05T01:36:59.435Z,13.99
2022-11-05T01:39:27.266Z,13.93
2022-11-05T01:41:55.426Z,13.94
2022-11-05T01:45:02.360Z,14.04
2022-11-05T01:47:58.083Z,14.02
2022-11-05T01:50:35.095Z,13.97
2022-11-05T01:53:10.189Z,13.93
2022-11-05T01:55:43.585Z,14.02
2022-11-05T01:58:18.134Z,13.87
2022-11-05T02:00:46.085Z,14.06
2022-11-05T02:03:17.655Z,13.85
2022-11-05T02:05:46.784Z,13.96
2022-11-05T02:08:41.184Z,13.89
2022-11-05T02:11:09.765Z,13.82
2022-11-05T02:13:38.135Z,14.09
2022-11-05T02:16:33.737Z,13.83
2022-11-05T02:19:20.875Z,13.72
2022-11-05T02:22:28.716Z,13.96
2022-11-05T02:25:18.723Z,13.79
2022-11-05T02:27:52.883Z,14.07
2022-11-05T02:30:32.593Z,14.14
2022-11-05T02:33:37.865Z,14.11
2022-11-05T02:36:24.333Z,14.24
2022-11-05T02:39:09.763Z,14.34
2022-11-05T02:41:51.614Z,14.44
2022-11-05T02:44:19.443Z,14.32
2022-11-05T02:47:18.154Z,14.09
2022-11-05T02:49:51.965Z,14.05
2022-11-05T02:52:29.043Z,14.07
2022-11-05T02:55:18.323Z,14.08
2022-11-05T02:57:48.220Z,14.10
2022-11-05T03:00:54.745Z,14.11
2022-11-05T03:03:25.702Z,13.95
2022-11-05T03:06:23.694Z,14.10
2022-11-05T03:08:57.651Z,14.10
2022-11-05T03:11:33.138Z,13.98
2022-11-05T03:14:14.408Z,13.87
2022-11-05T03:16:48.647Z,13.94
2022-11-05T03:19:40.496Z,14.02
2022-11-05T03:22:16.979Z,13.99
2022-11-05T03:24:51.846Z,14.05
2022-11-05T03:27:27.070Z,14.13
2022-11-05T03:30:08.618Z,14.07
2022-11-05T03:32:42.327Z,14.14
2022-11-05T03:35:48.167Z,14.20
2022-11-05T03:38:24.341Z,14.03
2022-11-05T03:40:56.006Z,14.15
2022-11-05T03:43:29.838Z,14.06
2022-11-05T03:46:02.829Z,13.99
2022-11-05T03:48:35.141Z,13.83
2022-11-05T03:51:16.750Z,14.05
2022-11-05T03:53:55.211Z,13.79
2022-11-05T03:56:33.528Z,13.90
2022-11-05T03:59:03.532Z,14.07
2022-11-05T04:01:32.565Z,14.20
2022-11-05T04:04:00.997Z,14.10
2022-11-05T04:06:47.747Z,14.33
2022-11-05T04:09:34.478Z,14.28
2022-11-05T04:12:21.777Z,14.46
2022-11-05T04:14:49.932Z,14.32
2022-11-05T04:17:18.088Z,14.64
2022-11-05T04:20:05.785Z,14.44
2022-11-05T04:22:55.437Z,14.54
2022-11-05T04:25:23.542Z,14.29
2022-11-05T04:27:53.551Z,14.26
2022-11-05T04:30:24.328Z,14.18
2022-11-05T04:32:58.628Z,14.38
2022-11-05T04:35:32.813Z,14.49
2022-11-05T04:38:02.514Z,14.69
2022-11-05T04:40:30.731Z,14.67
2022-11-05T04:42:59.171Z,14.67
2022-11-05T04:45:30.529Z,14.82
2022-11-05T04:47:58.710Z,14.53
2022-11-05T04:50:27.390Z,14.60
2022-11-05T04:52:55.623Z,14.75
2022-11-05T04:55:23.537Z,14.54
2022-11-05T04:57:54.073Z,14.42
2022-11-05T05:00:23.424Z,14.40
2022-11-05T05:02:52.097Z,14.50
2022-11-05T05:05:21.538Z,14.49
2022-11-05T05:07:50.025Z,14.36
2022-11-05T05:10:18.516Z,14.28
2022-11-05T05:12:46.985Z,14.66
2022-11-05T05:15:14.828Z,14.70
2022-11-05T05:17:43.331Z,14.67
2022-11-05T05:20:29.754Z,14.69
2022-11-05T05:22:58.205Z,14.85
2022-11-05T05:25:26.355Z,14.76
2022-11-05T05:27:58.366Z,14.91
2022-11-05T05:30:26.219Z,14.90
2022-11-05T05:32:54.532Z,14.87
2022-11-05T05:35:22.509Z,14.96
2022-11-05T05:37:56.115Z,15.06
2022-11-05T05:40:24.653Z,15.00
2022-11-05T05:42:56.326Z,14.99
2022-11-05T05:45:24.176Z,15.17
2022-11-05T05:47:56.484Z,15.12
2022-11-05T05:50:24.648Z,15.08
2022-11-05T05:52:54.108Z,14.86
2022-11-05T05:55:22.256Z,14.90
2022-11-05T05:57:51.055Z,14.81
2022-11-05T06:00:19.038Z,14.86
2022-11-05T06:02:47.444Z,14.84
2022-11-05T06:05:15.981Z,14.80
2022-11-05T06:07:44.565Z,14.71
2022-11-05T06:10:12.489Z,14.80
2022-11-05T06:12:40.965Z,14.89
2022-11-05T06:15:09.248Z,14.98
2022-11-05T06:17:37.416Z,15.09
2022-11-05T06:20:06.559Z,15.14
2022-11-05T06:22:34.885Z,15.14
2022-11-05T06:25:02.846Z,15.19
2022-11-05T06:27:31.669Z,15.32
2022-11-05T06:29:59.970Z,15.29
2022-11-05T06:32:28.793Z,15.01
2022-11-05T06:34:56.950Z,15.02
2022-11-05T06:37:25.421Z,15.11
2022-11-05T06:39:54.219Z,15.11
2022-11-05T06:42:22.443Z,15.35
2022-11-05T06:44:50.594Z,15.38
2022-11-05T06:47:19.819Z,15.40
2022-11-05T06:49:47.709Z,15.54
2022-11-05T06:52:16.247Z,15.59
2022-11-05T06:54:44.728Z,15.53
2022-11-05T06:57:13.541Z,15.49
2022-11-05T06:59:42.245Z,15.55
2022-11-05T07:02:14.078Z,15.73
2022-11-05T07:04:42.179Z,15.72
2022-11-05T07:07:10.957Z,15.97
2022-11-05T07:09:40.806Z,15.93
2022-11-05T07:12:09.849Z,16.23
2022-11-05T07:14:37.719Z,16.41
2022-11-05T07:17:06.816Z,16.49
2022-11-05T07:19:35.286Z,16.67
2022-11-05T07:22:04.088Z,16.74
2022-11-05T07:24:31.941Z,17.11
2022-11-05T07:27:00.407Z,17.29
2022-11-05T07:29:28.648Z,17.36
2022-11-05T07:31:57.052Z,17.52
2022-11-05T07:34:26.171Z,17.83
2022-11-05T07:36:54.647Z,17.98
2022-11-05T07:39:22.499Z,18.16
2022-11-05T07:41:58.327Z,18.42
2022-11-05T07:44:33.409Z,18.62
2022-11-05T07:47:02.240Z,18.81
2022-11-05T07:49:30.161Z,18.87
2022-11-05T07:51:59.305Z,19.01
2022-11-05T07:54:27.438Z,19.02
2022-11-05T07:56:55.932Z,19.08
2022-11-05T07:59:24.089Z,19.09
2022-11-05T08:01:52.548Z,18.83
2022-11-05T08:04:21.249Z,18.92
2022-11-05T08:06:49.859Z,19.14
2022-11-05T08:09:17.599Z,19.28
2022-11-05T08:11:46.168Z,19.57
2022-11-05T08:14:13.998Z,19.59
2022-11-05T08:16:42.489Z,19.69
2022-11-05T08:19:10.679Z,19.78
2022-11-05T08:21:39.069Z,19.65
2022-11-05T08:24:07.699Z,20.16
2022-11-05T08:26:35.980Z,20.34
2022-11-05T08:29:04.419Z,20.55
2022-11-05T08:31:33.048Z,20.59
2022-11-05T08:34:02.572Z,20.58
2022-11-05T08:36:31.620Z,20.57
2022-11-05T08:38:59.699Z,20.92
2022-11-05T08:41:28.023Z,21.28
2022-11-05T08:43:56.830Z,21.52
2022-11-05T08:46:25.210Z,21.49
2022-11-05T08:48:53.499Z,21.68
2022-11-05T08:51:21.849Z,21.48
2022-11-05T08:53:49.699Z,21.66
2022-11-05T08:56:18.579Z,21.95
2022-11-05T08:58:47.062Z,21.88
2022-11-05T09:01:15.519Z,22.33
2022-11-05T09:03:43.619Z,22.31
2022-11-05T09:06:11.879Z,22.59
2022-11-05T09:08:39.933Z,22.60
2022-11-05T09:11:08.451Z,22.61
2022-11-05T09:13:36.558Z,22.83
2022-11-05T09:16:05.688Z,22.86
2022-11-05T09:18:33.970Z,22.86
2022-11-05T09:21:02.331Z,23.03
2022-11-05T09:23:30.290Z,23.17
2022-11-05T09:25:58.820Z,23.28
2022-11-05T09:28:28.500Z,22.95
2022-11-05T09:30:56.932Z,22.88
2022-11-05T09:33:26.691Z,23.24
2022-11-05T09:35:55.533Z,23.18
2022-11-05T09:38:23.641Z,22.82
2022-11-05T09:41:11.062Z,22.17
2022-11-05T09:43:53.941Z,23.20
2022-11-05T09:46:33.541Z,23.41
2022-11-05T09:49:08.121Z,22.57
2022-11-05T09:51:37.891Z,22.23
2022-11-05T09:54:06.100Z,21.68
2022-11-05T09:56:40.842Z,22.83
2022-11-05T09:59:22.212Z,22.50
2022-11-05T10:01:53.330Z,22.52
2022-11-05T10:04:26.200Z,22.84
2022-11-05T10:07:00.103Z,23.70
2022-11-05T10:09:30.571Z,24.55
2022-11-05T10:12:08.282Z,24.61
2022-11-05T10:14:44.453Z,24.48
2022-11-05T10:17:25.080Z,23.52
2022-11-05T10:20:23.632Z,23.93
2022-11-05T10:22:59.480Z,24.15
2022-11-05T10:25:36.641Z,23.06
2022-11-05T10:28:08.664Z,22.34
2022-11-05T10:30:37.263Z,23.68
2022-11-05T10:33:07.799Z,23.76
2022-11-05T10:35:51.872Z,23.76
2022-11-05T10:38:21.100Z,24.65
2022-11-05T10:41:10.366Z,23.71
2022-11-05T10:43:49.230Z,24.01
2022-11-05T10:46:42.851Z,23.38
2022-11-05T10:49:34.660Z,24.20
2022-11-05T10:52:24.971Z,23.30
2022-11-05T10:54:59.503Z,23.41
2022-11-05T10:57:31.812Z,23.85
2022-11-05T11:00:15.342Z,23.88
2022-11-05T11:02:46.672Z,24.14
2022-11-05T11:05:38.183Z,24.59
2022-11-05T11:08:08.971Z,25.29
2022-11-05T11:10:53.772Z,26.16
2022-11-05T11:13:28.804Z,26.55
2022-11-05T11:16:37.443Z,26.31
2022-11-05T11:19:24.490Z,26.67
2022-11-05T11:22:05.135Z,24.63
2022-11-05T11:24:44.494Z,24.91
2022-11-05T11:27:33.707Z,25.75
2022-11-05T11:30:05.379Z,25.65
2022-11-05T11:32:39.628Z,26.76
2022-11-05T11:35:23.804Z,26.35
2022-11-05T11:37:54.579Z,27.17
2022-11-05T11:40:29.390Z,26.63
2022-11-05T11:43:00.938Z,27.16
2022-11-05T11:45:52.587Z,25.96
2022-11-05T11:48:29.713Z,26.72
2022-11-05T11:50:59.148Z,25.92
2022-11-05T11:53:34.019Z,27.29
2022-11-05T11:56:06.987Z,27.06
2022-11-05T11:58:39.617Z,27.00
2022-11-05T12:01:19.390Z,28.31
2022-11-05T12:04:08.911Z,26.51
2022-11-05T12:06:47.949Z,27.64
2022-11-05T12:09:22.183Z,28.30
2022-11-05T12:12:11.858Z,27.33
2022-11-05T12:14:45.178Z,28.44
2022-11-05T12:17:26.027Z,28.67
2022-11-05T12:20:19.797Z,27.88
2022-11-05T12:23:15.892Z,26.42
2022-11-05T12:26:02.822Z,26.77
2022-11-05T12:29:16.750Z,27.50
2022-11-05T12:31:43.687Z,27.54
2022-11-05T12:34:43.471Z,27.27
2022-11-05T12:37:14.844Z,27.39
2022-11-05T12:39:58.028Z,28.00
2022-11-05T12:42:38.334Z,28.66
2022-11-05T12:45:43.585Z,28.77
2022-11-05T12:48:26.841Z,27.80
2022-11-05T12:51:40.805Z,27.53
2022-11-05T12:54:16.838Z,26.59
2022-11-05T12:56:54.612Z,27.01
2022-11-05T12:59:48.366Z,26.47
2022-11-05T13:02:34.324Z,27.93
2022-11-05T13:05:21.165Z,26.33
2022-11-05T13:08:21.655Z,26.38
2022-11-05T13:11:23.526Z,27.89
2022-11-05T13:14:22.511Z,27.65
2022-11-05T13:16:55.919Z,28.46
2022-11-05T13:19:33.008Z,28.71
2022-11-05T13:22:30.625Z,27.07
2022-11-05T13:25:05.308Z,28.09
2022-11-05T13:28:04.164Z,28.16
2022-11-05T13:30:38.936Z,28.12
2022-11-05T13:33:18.535Z,28.75
2022-11-05T13:36:16.556Z,27.86
2022-11-05T13:39:01.317Z,27.88
2022-11-05T13:42:02.256Z,27.37
2022-11-05T13:45:00.355Z,26.21
2022-11-05T13:47:47.395Z,28.15
2022-11-05T13:50:30.566Z,28.79
2022-11-05T13:53:20.034Z,28.02
2022-11-05T13:55:57.455Z,27.23
2022-11-05T13:59:10.415Z,27.83
2022-11-05T14:01:43.873Z,27.88
2022-11-05T14:04:41.618Z,27.90
2022-11-05T14:07:16.365Z,28.81
2022-11-05T14:09:45.485Z,28.89
2022-11-05T14:12:30.298Z,29.36
2022-11-05T14:15:17.669Z,28.43
2022-11-05T14:18:00.218Z,28.80
2022-11-05T14:20:31.325Z,28.17
2022-11-05T14:23:17.956Z,28.83
2022-11-05T14:25:45.794Z,28.48
2022-11-05T14:28:50.934Z,28.39
2022-11-05T14:31:19.089Z,29.81
2022-11-05T14:34:13.671Z,32.61
2022-11-05T14:36:45.401Z,33.02
2022-11-05T14:39:26.692Z,34.28
2022-11-05T14:42:26.371Z,34.90
2022-11-05T14:45:08.441Z,34.43
2022-11-05T14:47:56.732Z,34.63
2022-11-05T14:51:02.164Z,35.47
2022-11-05T14:53:39.428Z,34.47
2022-11-05T14:56:20.142Z,34.22
2022-11-05T14:58:49.306Z,35.20
2022-11-05T15:01:36.673Z,35.20
2022-11-05T15:04:28.418Z,34.11
2022-11-05T15:07:04.144Z,34.49
2022-11-05T15:10:03.255Z,34.31
2022-11-05T15:12:42.880Z,32.61
2022-11-05T15:15:21.748Z,33.50
2022-11-05T15:18:00.725Z,32.54
2022-11-05T15:20:43.262Z,31.82
2022-11-05T15:23:15.166Z,30.13
2022-11-05T15:26:10.820Z,29.44
2022-11-05T15:28:47.249Z,27.84
2022-11-05T15:31:15.549Z,26.33
2022-11-05T15:33:50.033Z,25.73
2022-11-05T15:36:28.693Z,24.78
2022-11-05T15:39:28.922Z,24.49
2022-11-05T15:42:02.803Z,24.19
2022-11-05T15:44:40.599Z,24.14
2022-11-05T15:47:13.265Z,23.96
2022-11-05T15:50:14.726Z,23.78
2022-11-05T15:52:55.457Z,23.54
2022-11-05T15:55:27.831Z,23.15
2022-11-05T15:58:04.861Z,23.09
2022-11-05T16:00:36.782Z,23.04
2022-11-05T16:03:31.769Z,22.85
2022-11-05T16:06:01.367Z,22.49
2022-11-05T16:08:31.824Z,22.62
2022-11-05T16:11:02.018Z,22.51
2022-11-05T16:13:38.792Z,22.33
2022-11-05T16:16:16.578Z,22.18
2022-11-05T16:18:45.663Z,22.04
2022-11-05T16:21:19.755Z,22.13
2022-11-05T16:24:00.883Z,22.14
2022-11-05T16:29:33.737Z,21.66
2022-11-05T16:32:29.741Z,21.78
2022-11-05T16:35:04.890Z,21.44
2022-11-05T16:37:49.147Z,21.12
2022-11-05T16:40:26.067Z,21.03
2022-11-05T16:42:55.411Z,21.00
2022-11-05T16:45:25.362Z,21.00
2022-11-05T16:47:54.191Z,21.04
2022-11-05T16:50:26.033Z,20.95
2022-11-05T16:52:54.643Z,20.76
2022-11-05T16:55:22.942Z,20.75
2022-11-05T16:57:55.774Z,20.72
2022-11-05T17:00:25.330Z,20.78
2022-11-05T17:02:54.536Z,20.73
2022-11-05T17:05:29.519Z,20.63
2022-11-05T17:07:58.482Z,20.48
2022-11-05T17:10:27.092Z,20.60
2022-11-05T17:12:55.851Z,20.38
2022-11-05T17:15:35.903Z,20.12
2022-11-05T17:18:06.062Z,20.16
2022-11-05T17:20:44.133Z,19.94
2022-11-05T17:23:15.856Z,19.91
2022-11-05T17:25:47.771Z,19.86
2022-11-05T17:28:17.670Z,19.72
2022-11-05T17:30:52.265Z,19.49
2022-11-05T17:33:24.703Z,19.46
2022-11-05T17:35:58.328Z,19.36
2022-11-05T17:38:27.749Z,19.07
2022-11-05T17:40:55.850Z,19.13
2022-11-05T17:43:24.878Z,19.19
2022-11-05T17:45:54.155Z,18.98
2022-11-05T17:48:22.628Z,19.09
2022-11-05T17:50:51.510Z,19.01
2022-11-05T17:53:20.594Z,18.89
2022-11-05T17:55:49.061Z,18.62
2022-11-05T17:58:17.498Z,18.60
2022-11-05T18:00:47.282Z,18.68
2022-11-05T18:03:15.966Z,18.58
2022-11-05T18:05:45.303Z,18.69
2022-11-05T18:08:14.005Z,18.62
2022-11-05T18:10:42.723Z,18.46
2022-11-05T18:13:12.114Z,18.33
2022-11-05T18:15:41.640Z,18.30
2022-11-05T18:18:10.687Z,18.39
2022-11-05T18:20:39.621Z,18.32
2022-11-05T18:23:08.090Z,18.15
2022-11-05T18:25:36.603Z,18.15
2022-11-05T18:28:05.181Z,18.07
2022-11-05T18:30:34.880Z,17.90
2022-11-05T18:33:05.618Z,18.04
2022-11-05T18:35:33.486Z,18.12
2022-11-05T18:38:01.966Z,17.81
2022-11-05T18:40:29.831Z,17.66
2022-11-05T18:42:57.939Z,17.59
2022-11-05T18:45:29.746Z,17.50
2022-11-05T18:48:02.985Z,17.56
2022-11-05T18:50:31.555Z,17.45
2022-11-05T18:53:00.036Z,17.61
2022-11-05T18:55:27.918Z,17.73
2022-11-05T18:57:56.406Z,17.54
2022-11-05T19:00:24.358Z,17.38
2022-11-05T19:02:52.835Z,17.44
2022-11-05T19:05:29.475Z,17.51
2022-11-05T19:07:59.247Z,17.41
2022-11-05T19:10:29.007Z,17.14
2022-11-05T19:12:57.476Z,17.19
2022-11-05T19:15:25.268Z,17.17
2022-11-05T19:17:53.556Z,17.05
2022-11-05T19:20:21.636Z,17.10
2022-11-05T19:22:50.896Z,17.24
2022-11-05T19:25:18.948Z,17.05
2022-11-05T19:27:47.152Z,17.03
2022-11-05T19:30:15.056Z,17.18
2022-11-05T19:32:43.953Z,17.03
2022-11-05T19:35:12.668Z,16.94
2022-11-05T19:37:41.683Z,17.05
2022-11-05T19:40:16.851Z,16.82
2022-11-05T19:42:54.911Z,16.86
2022-11-05T19:45:43.739Z,16.68
2022-11-05T19:48:19.985Z,16.77
2022-11-05T19:50:53.475Z,16.69
2022-11-05T19:53:26.741Z,16.68
2022-11-05T19:55:58.380Z,16.66
2022-11-05T19:58:33.530Z,16.74
2022-11-05T20:01:14.614Z,16.44
2022-11-05T20:03:47.440Z,16.63
2022-11-05T20:06:32.008Z,16.40
2022-11-05T20:09:22.842Z,16.59
2022-11-05T20:12:08.855Z,16.64
2022-11-05T20:14:47.098Z,16.31
2022-11-05T20:17:35.282Z,16.51
2022-11-05T20:20:15.840Z,16.38
2022-11-05T20:22:45.908Z,16.27
2022-11-05T20:25:16.110Z,16.27
2022-11-05T20:27:44.390Z,16.06
2022-11-05T20:30:16.573Z,16.02
2022-11-05T20:32:45.353Z,16.04
2022-11-05T20:35:25.593Z,16.02
2022-11-05T20:37:58.016Z,16.08
2022-11-05T20:40:26.330Z,16.28
2022-11-05T20:42:54.156Z,16.17
2022-11-05T20:45:22.398Z,16.06
2022-11-05T20:47:50.308Z,15.95
2022-11-05T20:50:18.589Z,16.09
2022-11-05T20:52:46.390Z,16.06
2022-11-05T20:55:14.687Z,16.13
2022-11-05T20:57:42.558Z,16.08
2022-11-05T21:00:11.509Z,16.08
2022-11-05T21:02:40.051Z,16.12
2022-11-05T21:05:08.977Z,16.28
2022-11-05T21:07:36.908Z,15.99
2022-11-05T21:10:06.654Z,15.88
2022-11-05T21:12:34.719Z,15.97
2022-11-05T21:15:02.894Z,15.71
2022-11-05T21:17:30.828Z,15.92
2022-11-05T21:19:59.009Z,15.92
2022-11-05T21:22:26.869Z,15.79
2022-11-05T21:24:56.964Z,15.63
2022-11-05T21:27:24.924Z,15.82
2022-11-05T21:29:52.989Z,15.74
2022-11-05T21:32:20.839Z,15.61
2022-11-05T21:34:48.989Z,15.57
2022-11-05T21:37:16.869Z,15.55
2022-11-05T21:39:45.067Z,15.57
2022-11-05T21:42:12.967Z,15.54
2022-11-05T21:44:41.129Z,15.43
2022-11-05T21:47:09.810Z,15.50
2022-11-05T21:49:37.999Z,15.76
2022-11-05T21:52:24.263Z,15.53
2022-11-05T21:55:10.993Z,15.43
2022-11-05T21:57:58.505Z,15.52
2022-11-05T22:00:26.774Z,15.57
2022-11-05T22:02:54.867Z,15.46
2022-11-05T22:05:23.154Z,15.39
2022-11-05T22:07:50.906Z,15.66
2022-11-05T22:10:19.153Z,15.63
2022-11-05T22:12:47.027Z,15.69
2022-11-05T22:15:15.295Z,15.65
2022-11-05T22:17:46.922Z,15.66
2022-11-05T22:20:16.554Z,15.49
2022-11-05T22:22:44.980Z,15.41
2022-11-05T22:25:14.171Z,15.27
2022-11-05T22:27:44.017Z,15.62
2022-11-05T22:30:14.003Z,15.67
2022-11-05T22:32:42.149Z,15.50
2022-11-05T22:35:10.525Z,15.37
2022-11-05T22:37:38.447Z,15.23
2022-11-05T22:40:07.245Z,15.18
2022-11-05T22:42:35.389Z,15.22
2022-11-05T22:45:04.020Z,15.41
2022-11-05T22:47:31.882Z,15.03
2022-11-05T22:50:00.141Z,15.14
2022-11-05T22:52:28.197Z,15.02
2022-11-05T22:54:56.630Z,14.95
2022-11-05T22:57:24.612Z,14.97
2022-11-05T22:59:52.751Z,15.00
2022-11-05T23:02:20.956Z,14.84
2022-11-05T23:04:52.050Z,15.09
2022-11-05T23:07:38.871Z,14.79
2022-11-05T23:10:26.602Z,14.81
2022-11-05T23:13:03.005Z,14.79
2022-11-05T23:15:50.324Z,14.68
2022-11-05T23:18:37.013Z,14.57
2022-11-05T23:21:23.654Z,14.55
2022-11-05T23:24:06.597Z,14.49
2022-11-05T23:26:51.811Z,14.42
2022-11-05T23:29:22.509Z,14.47
2022-11-05T23:32:10.242Z,14.37
2022-11-05T23:34:38.536Z,14.45
2022-11-05T23:37:26.206Z,14.47
2022-11-05T23:39:54.691Z,14.48
2022-11-05T23:42:42.622Z,14.38
2022-11-05T23:45:29.342Z,14.46
2022-11-05T23:48:16.663Z,14.53
2022-11-05T23:50:59.966Z,14.55
